sensor_id;sensor_type;location;lat;lon;timestamp;P1;durP1;ratioP1;P2;durP2;ratioP2
81124;SDS011;72192;52.114;5.424;2024-01-07T00:01:58;17.98;;;7.95;;
81124;SDS011;72192;52.114;5.424;2024-01-07T00:04:38;19.98;;;8.85;;
81124;SDS011;72192;52.114;5.424;2024-01-07T00:07:19;16.13;;;7.68;;
81124;SDS011;72192;52.114;5.424;2024-01-07T00:09:59;18.33;;;7.32;;
81124;SDS011;72192;52.114;5.424;2024-01-07T00:12:39;15.52;;;7.97;;
81124;SDS011;72192;52.114;5.424;2024-01-07T00:15:19;14.07;;;7.20;;
81124;SDS011;72192;52.114;5.424;2024-01-07T00:17:59;14.63;;;6.78;;
81124;SDS011;72192;52.114;5.424;2024-01-07T00:20:39;14.13;;;7.30;;
81124;SDS011;72192;52.114;5.424;2024-01-07T00:23:19;15.30;;;6.93;;
81124;SDS011;72192;52.114;5.424;2024-01-07T00:25:59;14.50;;;6.38;;
81124;SDS011;72192;52.114;5.424;2024-01-07T00:28:41;15.88;;;7.70;;
81124;SDS011;72192;52.114;5.424;2024-01-07T00:31:23;15.35;;;7.07;;
81124;SDS011;72192;52.114;5.424;2024-01-07T00:34:01;13.80;;;6.72;;
81124;SDS011;72192;52.114;5.424;2024-01-07T00:36:43;12.25;;;6.10;;
81124;SDS011;72192;52.114;5.424;2024-01-07T00:39:22;11.93;;;6.32;;
81124;SDS011;72192;52.114;5.424;2024-01-07T00:42:05;12.60;;;6.00;;
81124;SDS011;72192;52.114;5.424;2024-01-07T00:44:45;13.13;;;5.78;;
81124;SDS011;72192;52.114;5.424;2024-01-07T00:47:25;16.00;;;7.20;;
81124;SDS011;72192;52.114;5.424;2024-01-07T00:50:05;14.48;;;6.60;;
81124;SDS011;72192;52.114;5.424;2024-01-07T00:52:45;15.80;;;6.82;;
81124;SDS011;72192;52.114;5.424;2024-01-07T00:55:25;13.60;;;6.28;;
81124;SDS011;72192;52.114;5.424;2024-01-07T00:58:05;14.18;;;6.85;;
81124;SDS011;72192;52.114;5.424;2024-01-07T01:00:45;12.35;;;6.60;;
81124;SDS011;72192;52.114;5.424;2024-01-07T01:03:26;14.10;;;6.95;;
81124;SDS011;72192;52.114;5.424;2024-01-07T01:06:06;14.05;;;6.70;;
81124;SDS011;72192;52.114;5.424;2024-01-07T01:08:46;14.48;;;6.78;;
81124;SDS011;72192;52.114;5.424;2024-01-07T01:11:26;12.02;;;6.60;;
81124;SDS011;72192;52.114;5.424;2024-01-07T01:14:06;15.32;;;6.88;;
81124;SDS011;72192;52.114;5.424;2024-01-07T01:16:46;15.52;;;6.93;;
81124;SDS011;72192;52.114;5.424;2024-01-07T01:19:26;18.05;;;8.23;;
81124;SDS011;72192;52.114;5.424;2024-01-07T01:22:06;13.60;;;6.88;;
81124;SDS011;72192;52.114;5.424;2024-01-07T01:24:46;15.02;;;7.47;;
81124;SDS011;72192;52.114;5.424;2024-01-07T01:27:26;16.25;;;6.75;;
81124;SDS011;72192;52.114;5.424;2024-01-07T01:30:06;17.60;;;8.00;;
81124;SDS011;72192;52.114;5.424;2024-01-07T01:32:47;15.63;;;7.55;;
81124;SDS011;72192;52.114;5.424;2024-01-07T01:35:27;15.98;;;6.68;;
81124;SDS011;72192;52.114;5.424;2024-01-07T01:38:07;14.43;;;7.22;;
81124;SDS011;72192;52.114;5.424;2024-01-07T01:40:51;18.80;;;7.88;;
81124;SDS011;72192;52.114;5.424;2024-01-07T01:43:32;19.48;;;8.40;;
81124;SDS011;72192;52.114;5.424;2024-01-07T01:46:12;14.80;;;7.20;;
81124;SDS011;72192;52.114;5.424;2024-01-07T01:48:53;16.13;;;7.68;;
81124;SDS011;72192;52.114;5.424;2024-01-07T01:51:34;19.27;;;7.90;;
81124;SDS011;72192;52.114;5.424;2024-01-07T01:54:15;18.70;;;7.93;;
81124;SDS011;72192;52.114;5.424;2024-01-07T01:56:58;19.88;;;8.07;;
81124;SDS011;72192;52.114;5.424;2024-01-07T01:59:37;17.50;;;8.93;;
81124;SDS011;72192;52.114;5.424;2024-01-07T02:02:18;14.77;;;7.95;;
81124;SDS011;72192;52.114;5.424;2024-01-07T02:04:58;19.42;;;7.80;;
81124;SDS011;72192;52.114;5.424;2024-01-07T02:07:42;17.00;;;7.75;;
81124;SDS011;72192;52.114;5.424;2024-01-07T02:10:22;16.70;;;8.25;;
81124;SDS011;72192;52.114;5.424;2024-01-07T02:13:02;19.48;;;8.55;;
81124;SDS011;72192;52.114;5.424;2024-01-07T02:15:43;17.45;;;8.18;;
81124;SDS011;72192;52.114;5.424;2024-01-07T02:18:23;17.40;;;7.25;;
81124;SDS011;72192;52.114;5.424;2024-01-07T02:21:03;14.52;;;7.50;;
81124;SDS011;72192;52.114;5.424;2024-01-07T02:23:43;17.27;;;8.50;;
81124;SDS011;72192;52.114;5.424;2024-01-07T02:26:23;18.70;;;7.97;;
81124;SDS011;72192;52.114;5.424;2024-01-07T02:29:03;19.85;;;8.48;;
81124;SDS011;72192;52.114;5.424;2024-01-07T02:31:43;20.10;;;8.48;;
81124;SDS011;72192;52.114;5.424;2024-01-07T02:34:25;20.33;;;8.80;;
81124;SDS011;72192;52.114;5.424;2024-01-07T02:37:05;21.67;;;9.07;;
81124;SDS011;72192;52.114;5.424;2024-01-07T02:39:45;21.92;;;10.45;;
81124;SDS011;72192;52.114;5.424;2024-01-07T02:42:25;19.98;;;9.02;;
81124;SDS011;72192;52.114;5.424;2024-01-07T02:45:05;18.02;;;8.70;;
81124;SDS011;72192;52.114;5.424;2024-01-07T02:47:45;19.48;;;9.10;;
81124;SDS011;72192;52.114;5.424;2024-01-07T02:50:25;19.73;;;9.05;;
81124;SDS011;72192;52.114;5.424;2024-01-07T02:53:05;17.75;;;8.45;;
81124;SDS011;72192;52.114;5.424;2024-01-07T02:55:47;19.40;;;8.05;;
81124;SDS011;72192;52.114;5.424;2024-01-07T02:58:27;20.95;;;8.63;;
81124;SDS011;72192;52.114;5.424;2024-01-07T03:01:10;20.05;;;9.05;;
81124;SDS011;72192;52.114;5.424;2024-01-07T03:03:52;19.27;;;8.82;;
81124;SDS011;72192;52.114;5.424;2024-01-07T03:06:34;16.83;;;8.50;;
81124;SDS011;72192;52.114;5.424;2024-01-07T03:09:13;17.95;;;8.57;;
81124;SDS011;72192;52.114;5.424;2024-01-07T03:11:56;17.85;;;8.82;;
81124;SDS011;72192;52.114;5.424;2024-01-07T03:14:36;21.27;;;8.50;;
81124;SDS011;72192;52.114;5.424;2024-01-07T03:17:15;20.73;;;9.52;;
81124;SDS011;72192;52.114;5.424;2024-01-07T03:19:55;18.00;;;8.77;;
81124;SDS011;72192;52.114;5.424;2024-01-07T03:22:35;20.77;;;9.13;;
81124;SDS011;72192;52.114;5.424;2024-01-07T03:25:15;19.80;;;9.23;;
81124;SDS011;72192;52.114;5.424;2024-01-07T03:27:55;20.83;;;9.32;;
81124;SDS011;72192;52.114;5.424;2024-01-07T03:30:36;15.27;;;8.73;;
81124;SDS011;72192;52.114;5.424;2024-01-07T03:33:16;17.77;;;8.65;;
81124;SDS011;72192;52.114;5.424;2024-01-07T03:35:56;19.65;;;8.73;;
81124;SDS011;72192;52.114;5.424;2024-01-07T03:38:36;24.70;;;9.27;;
81124;SDS011;72192;52.114;5.424;2024-01-07T03:41:17;15.85;;;7.90;;
81124;SDS011;72192;52.114;5.424;2024-01-07T03:43:59;19.48;;;8.70;;
81124;SDS011;72192;52.114;5.424;2024-01-07T03:46:39;20.58;;;9.07;;
81124;SDS011;72192;52.114;5.424;2024-01-07T03:49:22;18.42;;;8.35;;
81124;SDS011;72192;52.114;5.424;2024-01-07T03:52:02;19.38;;;8.50;;
81124;SDS011;72192;52.114;5.424;2024-01-07T03:54:44;15.50;;;8.13;;
81124;SDS011;72192;52.114;5.424;2024-01-07T03:57:24;19.02;;;10.23;;
81124;SDS011;72192;52.114;5.424;2024-01-07T04:00:04;19.27;;;9.23;;
81124;SDS011;72192;52.114;5.424;2024-01-07T04:02:46;15.45;;;7.63;;
81124;SDS011;72192;52.114;5.424;2024-01-07T04:05:26;21.15;;;9.48;;
81124;SDS011;72192;52.114;5.424;2024-01-07T04:08:09;17.25;;;9.45;;
81124;SDS011;72192;52.114;5.424;2024-01-07T04:10:49;19.38;;;8.68;;
81124;SDS011;72192;52.114;5.424;2024-01-07T04:13:29;24.52;;;9.38;;
81124;SDS011;72192;52.114;5.424;2024-01-07T04:16:16;18.95;;;9.05;;
81124;SDS011;72192;52.114;5.424;2024-01-07T04:18:57;19.55;;;8.95;;
81124;SDS011;72192;52.114;5.424;2024-01-07T04:21:37;18.88;;;8.80;;
81124;SDS011;72192;52.114;5.424;2024-01-07T04:24:17;18.98;;;8.90;;
81124;SDS011;72192;52.114;5.424;2024-01-07T04:26:57;20.58;;;9.95;;
81124;SDS011;72192;52.114;5.424;2024-01-07T04:29:37;21.60;;;9.68;;
81124;SDS011;72192;52.114;5.424;2024-01-07T04:32:19;21.10;;;10.23;;
81124;SDS011;72192;52.114;5.424;2024-01-07T04:34:58;20.15;;;9.00;;
81124;SDS011;72192;52.114;5.424;2024-01-07T04:37:39;18.50;;;9.30;;
81124;SDS011;72192;52.114;5.424;2024-01-07T04:40:22;15.95;;;8.45;;
81124;SDS011;72192;52.114;5.424;2024-01-07T04:43:02;18.25;;;9.10;;
81124;SDS011;72192;52.114;5.424;2024-01-07T04:45:42;18.08;;;8.93;;
81124;SDS011;72192;52.114;5.424;2024-01-07T04:48:22;20.83;;;9.10;;
81124;SDS011;72192;52.114;5.424;2024-01-07T04:51:02;23.05;;;9.13;;
81124;SDS011;72192;52.114;5.424;2024-01-07T04:53:42;18.13;;;8.57;;
81124;SDS011;72192;52.114;5.424;2024-01-07T04:56:22;16.65;;;8.18;;
81124;SDS011;72192;52.114;5.424;2024-01-07T04:59:02;16.38;;;7.78;;
81124;SDS011;72192;52.114;5.424;2024-01-07T05:01:42;15.60;;;7.65;;
81124;SDS011;72192;52.114;5.424;2024-01-07T05:04:23;17.00;;;8.15;;
81124;SDS011;72192;52.114;5.424;2024-01-07T05:07:03;16.75;;;7.28;;
81124;SDS011;72192;52.114;5.424;2024-01-07T05:09:43;13.57;;;7.90;;
81124;SDS011;72192;52.114;5.424;2024-01-07T05:12:23;16.33;;;8.15;;
81124;SDS011;72192;52.114;5.424;2024-01-07T05:15:03;14.48;;;7.43;;
81124;SDS011;72192;52.114;5.424;2024-01-07T05:20:27;12.65;;;6.38;;
81124;SDS011;72192;52.114;5.424;2024-01-07T05:23:06;14.25;;;6.88;;
81124;SDS011;72192;52.114;5.424;2024-01-07T05:25:46;13.00;;;6.75;;
81124;SDS011;72192;52.114;5.424;2024-01-07T05:28:26;17.35;;;8.00;;
81124;SDS011;72192;52.114;5.424;2024-01-07T05:31:13;15.40;;;7.32;;
81124;SDS011;72192;52.114;5.424;2024-01-07T05:34:00;13.07;;;6.78;;
81124;SDS011;72192;52.114;5.424;2024-01-07T05:36:39;12.73;;;6.53;;
81124;SDS011;72192;52.114;5.424;2024-01-07T05:39:21;12.73;;;6.35;;
81124;SDS011;72192;52.114;5.424;2024-01-07T05:42:00;14.07;;;6.68;;
81124;SDS011;72192;52.114;5.424;2024-01-07T05:44:40;14.25;;;6.30;;
81124;SDS011;72192;52.114;5.424;2024-01-07T05:47:20;13.07;;;6.40;;
81124;SDS011;72192;52.114;5.424;2024-01-07T05:50:00;13.27;;;6.65;;
81124;SDS011;72192;52.114;5.424;2024-01-07T05:52:40;13.85;;;6.57;;
81124;SDS011;72192;52.114;5.424;2024-01-07T05:55:22;12.82;;;6.68;;
81124;SDS011;72192;52.114;5.424;2024-01-07T05:58:02;13.65;;;6.65;;
81124;SDS011;72192;52.114;5.424;2024-01-07T06:00:42;16.10;;;7.43;;
81124;SDS011;72192;52.114;5.424;2024-01-07T06:03:22;13.27;;;6.40;;
81124;SDS011;72192;52.114;5.424;2024-01-07T06:06:02;13.18;;;6.35;;
81124;SDS011;72192;52.114;5.424;2024-01-07T06:08:42;14.05;;;7.07;;
81124;SDS011;72192;52.114;5.424;2024-01-07T06:11:23;13.88;;;7.70;;
81124;SDS011;72192;52.114;5.424;2024-01-07T06:14:06;15.05;;;6.85;;
81124;SDS011;72192;52.114;5.424;2024-01-07T06:16:47;13.38;;;6.65;;
81124;SDS011;72192;52.114;5.424;2024-01-07T06:19:27;14.10;;;7.10;;
81124;SDS011;72192;52.114;5.424;2024-01-07T06:22:08;13.93;;;7.00;;
81124;SDS011;72192;52.114;5.424;2024-01-07T06:24:48;17.42;;;7.03;;
81124;SDS011;72192;52.114;5.424;2024-01-07T06:27:28;14.38;;;7.05;;
81124;SDS011;72192;52.114;5.424;2024-01-07T06:30:08;14.88;;;6.63;;
81124;SDS011;72192;52.114;5.424;2024-01-07T06:32:49;12.80;;;6.78;;
81124;SDS011;72192;52.114;5.424;2024-01-07T06:35:29;14.45;;;6.90;;
81124;SDS011;72192;52.114;5.424;2024-01-07T06:38:09;15.48;;;7.18;;
81124;SDS011;72192;52.114;5.424;2024-01-07T06:40:49;12.65;;;6.80;;
81124;SDS011;72192;52.114;5.424;2024-01-07T06:43:29;13.88;;;6.88;;
81124;SDS011;72192;52.114;5.424;2024-01-07T06:46:10;10.80;;;6.55;;
81124;SDS011;72192;52.114;5.424;2024-01-07T06:48:49;12.75;;;6.13;;
81124;SDS011;72192;52.114;5.424;2024-01-07T06:51:29;13.48;;;6.90;;
81124;SDS011;72192;52.114;5.424;2024-01-07T06:54:09;10.00;;;5.82;;
81124;SDS011;72192;52.114;5.424;2024-01-07T06:56:49;13.20;;;6.35;;
81124;SDS011;72192;52.114;5.424;2024-01-07T06:59:29;15.90;;;7.35;;
81124;SDS011;72192;52.114;5.424;2024-01-07T07:02:09;12.90;;;6.68;;
81124;SDS011;72192;52.114;5.424;2024-01-07T07:04:50;12.50;;;6.47;;
81124;SDS011;72192;52.114;5.424;2024-01-07T07:07:30;11.85;;;5.75;;
81124;SDS011;72192;52.114;5.424;2024-01-07T07:10:10;15.50;;;7.25;;
81124;SDS011;72192;52.114;5.424;2024-01-07T07:12:50;15.35;;;6.70;;
81124;SDS011;72192;52.114;5.424;2024-01-07T07:15:30;14.57;;;6.80;;
81124;SDS011;72192;52.114;5.424;2024-01-07T07:18:10;13.63;;;7.32;;
81124;SDS011;72192;52.114;5.424;2024-01-07T07:20:50;11.80;;;6.22;;
81124;SDS011;72192;52.114;5.424;2024-01-07T07:23:37;13.80;;;6.85;;
81124;SDS011;72192;52.114;5.424;2024-01-07T07:26:17;14.23;;;7.07;;
81124;SDS011;72192;52.114;5.424;2024-01-07T07:28:57;12.38;;;7.28;;
81124;SDS011;72192;52.114;5.424;2024-01-07T07:31:38;15.93;;;7.40;;
81124;SDS011;72192;52.114;5.424;2024-01-07T07:34:18;15.05;;;7.50;;
81124;SDS011;72192;52.114;5.424;2024-01-07T07:37:00;13.98;;;7.65;;
81124;SDS011;72192;52.114;5.424;2024-01-07T07:39:39;14.75;;;6.93;;
81124;SDS011;72192;52.114;5.424;2024-01-07T07:42:19;14.70;;;6.78;;
81124;SDS011;72192;52.114;5.424;2024-01-07T07:44:59;13.75;;;5.93;;
81124;SDS011;72192;52.114;5.424;2024-01-07T07:47:40;13.65;;;7.50;;
81124;SDS011;72192;52.114;5.424;2024-01-07T07:50:24;10.98;;;5.82;;
81124;SDS011;72192;52.114;5.424;2024-01-07T07:53:04;14.10;;;7.15;;
81124;SDS011;72192;52.114;5.424;2024-01-07T07:55:45;15.93;;;7.47;;
81124;SDS011;72192;52.114;5.424;2024-01-07T07:58:24;13.05;;;7.10;;
81124;SDS011;72192;52.114;5.424;2024-01-07T08:01:04;13.40;;;6.50;;
81124;SDS011;72192;52.114;5.424;2024-01-07T08:03:44;13.50;;;6.47;;
81124;SDS011;72192;52.114;5.424;2024-01-07T08:06:28;13.48;;;6.90;;
81124;SDS011;72192;52.114;5.424;2024-01-07T08:09:08;12.80;;;7.15;;
81124;SDS011;72192;52.114;5.424;2024-01-07T08:11:51;13.30;;;6.43;;
81124;SDS011;72192;52.114;5.424;2024-01-07T08:14:31;12.60;;;5.95;;
81124;SDS011;72192;52.114;5.424;2024-01-07T08:17:11;10.23;;;5.88;;
81124;SDS011;72192;52.114;5.424;2024-01-07T08:19:51;11.07;;;5.93;;
81124;SDS011;72192;52.114;5.424;2024-01-07T08:22:31;9.95;;;5.47;;
81124;SDS011;72192;52.114;5.424;2024-01-07T08:25:12;11.40;;;5.10;;
81124;SDS011;72192;52.114;5.424;2024-01-07T08:27:51;10.52;;;5.57;;
81124;SDS011;72192;52.114;5.424;2024-01-07T08:30:31;12.82;;;6.28;;
81124;SDS011;72192;52.114;5.424;2024-01-07T08:33:11;11.55;;;5.80;;
81124;SDS011;72192;52.114;5.424;2024-01-07T08:35:51;10.50;;;5.22;;
81124;SDS011;72192;52.114;5.424;2024-01-07T08:38:31;11.30;;;5.78;;
81124;SDS011;72192;52.114;5.424;2024-01-07T08:41:14;10.38;;;5.78;;
81124;SDS011;72192;52.114;5.424;2024-01-07T08:44:02;11.77;;;6.10;;
81124;SDS011;72192;52.114;5.424;2024-01-07T08:46:48;10.85;;;5.60;;
81124;SDS011;72192;52.114;5.424;2024-01-07T08:49:28;12.40;;;6.85;;
81124;SDS011;72192;52.114;5.424;2024-01-07T08:52:14;11.73;;;5.90;;
81124;SDS011;72192;52.114;5.424;2024-01-07T08:54:54;12.65;;;5.63;;
81124;SDS011;72192;52.114;5.424;2024-01-07T08:57:33;12.18;;;6.47;;
81124;SDS011;72192;52.114;5.424;2024-01-07T09:00:14;11.68;;;6.45;;
81124;SDS011;72192;52.114;5.424;2024-01-07T09:02:54;10.88;;;5.82;;
81124;SDS011;72192;52.114;5.424;2024-01-07T09:05:34;11.45;;;5.70;;
81124;SDS011;72192;52.114;5.424;2024-01-07T09:08:14;9.85;;;5.30;;
81124;SDS011;72192;52.114;5.424;2024-01-07T09:10:53;10.32;;;6.22;;
81124;SDS011;72192;52.114;5.424;2024-01-07T09:13:33;9.85;;;5.05;;
81124;SDS011;72192;52.114;5.424;2024-01-07T09:16:13;11.15;;;5.05;;
81124;SDS011;72192;52.114;5.424;2024-01-07T09:18:53;10.95;;;5.22;;
81124;SDS011;72192;52.114;5.424;2024-01-07T09:21:33;10.23;;;5.18;;
81124;SDS011;72192;52.114;5.424;2024-01-07T09:24:13;10.85;;;5.13;;
81124;SDS011;72192;52.114;5.424;2024-01-07T09:26:53;11.05;;;5.80;;
81124;SDS011;72192;52.114;5.424;2024-01-07T09:29:34;9.88;;;4.72;;
81124;SDS011;72192;52.114;5.424;2024-01-07T09:32:14;11.75;;;5.63;;
81124;SDS011;72192;52.114;5.424;2024-01-07T09:34:54;9.98;;;5.50;;
81124;SDS011;72192;52.114;5.424;2024-01-07T09:37:35;12.07;;;5.40;;
81124;SDS011;72192;52.114;5.424;2024-01-07T09:40:18;11.95;;;5.38;;
81124;SDS011;72192;52.114;5.424;2024-01-07T09:42:58;9.40;;;5.00;;
81124;SDS011;72192;52.114;5.424;2024-01-07T09:45:38;11.13;;;5.38;;
81124;SDS011;72192;52.114;5.424;2024-01-07T09:48:21;10.05;;;5.28;;
81124;SDS011;72192;52.114;5.424;2024-01-07T09:54:17;9.70;;;4.65;;
81124;SDS011;72192;52.114;5.424;2024-01-07T09:57:01;10.98;;;4.35;;
81124;SDS011;72192;52.114;5.424;2024-01-07T09:59:44;8.77;;;4.97;;
81124;SDS011;72192;52.114;5.424;2024-01-07T10:02:25;8.85;;;4.18;;
81124;SDS011;72192;52.114;5.424;2024-01-07T10:05:06;9.05;;;4.32;;
81124;SDS011;72192;52.114;5.424;2024-01-07T10:07:46;9.95;;;4.20;;
81124;SDS011;72192;52.114;5.424;2024-01-07T10:10:26;8.13;;;3.78;;
81124;SDS011;72192;52.114;5.424;2024-01-07T10:13:08;8.65;;;3.97;;
81124;SDS011;72192;52.114;5.424;2024-01-07T10:15:48;5.53;;;3.05;;
81124;SDS011;72192;52.114;5.424;2024-01-07T10:18:28;7.30;;;3.78;;
81124;SDS011;72192;52.114;5.424;2024-01-07T10:21:12;7.30;;;3.60;;
81124;SDS011;72192;52.114;5.424;2024-01-07T10:24:08;6.65;;;3.55;;
81124;SDS011;72192;52.114;5.424;2024-01-07T10:26:49;8.15;;;3.90;;
81124;SDS011;72192;52.114;5.424;2024-01-07T10:29:32;6.60;;;3.60;;
81124;SDS011;72192;52.114;5.424;2024-01-07T10:32:12;6.53;;;2.97;;
81124;SDS011;72192;52.114;5.424;2024-01-07T10:34:52;6.00;;;3.00;;
81124;SDS011;72192;52.114;5.424;2024-01-07T10:37:43;6.03;;;2.70;;
81124;SDS011;72192;52.114;5.424;2024-01-07T10:40:23;6.32;;;3.05;;
81124;SDS011;72192;52.114;5.424;2024-01-07T10:43:07;5.03;;;2.85;;
81124;SDS011;72192;52.114;5.424;2024-01-07T10:45:47;5.60;;;2.72;;
81124;SDS011;72192;52.114;5.424;2024-01-07T10:48:28;5.68;;;2.50;;
81124;SDS011;72192;52.114;5.424;2024-01-07T10:51:10;6.75;;;3.33;;
81124;SDS011;72192;52.114;5.424;2024-01-07T10:53:54;6.60;;;2.75;;
81124;SDS011;72192;52.114;5.424;2024-01-07T10:56:38;5.80;;;2.58;;
81124;SDS011;72192;52.114;5.424;2024-01-07T11:02:06;5.03;;;2.47;;
81124;SDS011;72192;52.114;5.424;2024-01-07T11:04:51;5.35;;;2.35;;
81124;SDS011;72192;52.114;5.424;2024-01-07T11:08:39;5.57;;;2.53;;
81124;SDS011;72192;52.114;5.424;2024-01-07T11:11:35;5.20;;;2.42;;
81124;SDS011;72192;52.114;5.424;2024-01-07T11:14:37;5.43;;;2.70;;
81124;SDS011;72192;52.114;5.424;2024-01-07T11:20:20;4.43;;;2.10;;
81124;SDS011;72192;52.114;5.424;2024-01-07T11:26:07;5.10;;;2.30;;
81124;SDS011;72192;52.114;5.424;2024-01-07T11:37:27;4.63;;;1.98;;
81124;SDS011;72192;52.114;5.424;2024-01-07T11:40:07;4.10;;;1.60;;
81124;SDS011;72192;52.114;5.424;2024-01-07T11:42:49;4.40;;;2.10;;
81124;SDS011;72192;52.114;5.424;2024-01-07T11:45:30;4.22;;;1.85;;
81124;SDS011;72192;52.114;5.424;2024-01-07T11:48:12;4.55;;;1.80;;
81124;SDS011;72192;52.114;5.424;2024-01-07T11:50:50;4.05;;;1.70;;
81124;SDS011;72192;52.114;5.424;2024-01-07T11:53:31;5.80;;;1.70;;
81124;SDS011;72192;52.114;5.424;2024-01-07T11:58:55;4.93;;;1.95;;
81124;SDS011;72192;52.114;5.424;2024-01-07T12:01:36;3.70;;;1.83;;
81124;SDS011;72192;52.114;5.424;2024-01-07T12:04:17;4.80;;;1.85;;
81124;SDS011;72192;52.114;5.424;2024-01-07T12:06:58;4.32;;;1.80;;
81124;SDS011;72192;52.114;5.424;2024-01-07T12:09:38;5.25;;;1.75;;
81124;SDS011;72192;52.114;5.424;2024-01-07T12:12:20;3.78;;;2.00;;
81124;SDS011;72192;52.114;5.424;2024-01-07T12:15:00;5.30;;;2.00;;
81124;SDS011;72192;52.114;5.424;2024-01-07T12:17:42;5.10;;;1.90;;
81124;SDS011;72192;52.114;5.424;2024-01-07T12:20:34;3.90;;;2.00;;
81124;SDS011;72192;52.114;5.424;2024-01-07T12:23:14;4.03;;;1.67;;
81124;SDS011;72192;52.114;5.424;2024-01-07T12:25:55;3.75;;;1.60;;
81124;SDS011;72192;52.114;5.424;2024-01-07T12:28:57;4.38;;;2.05;;
81124;SDS011;72192;52.114;5.424;2024-01-07T12:31:42;3.97;;;1.75;;
81124;SDS011;72192;52.114;5.424;2024-01-07T12:34:24;4.30;;;2.03;;
81124;SDS011;72192;52.114;5.424;2024-01-07T12:37:05;3.13;;;1.50;;
81124;SDS011;72192;52.114;5.424;2024-01-07T12:39:44;3.20;;;1.48;;
81124;SDS011;72192;52.114;5.424;2024-01-07T12:42:28;3.05;;;1.48;;
81124;SDS011;72192;52.114;5.424;2024-01-07T12:45:07;4.45;;;1.58;;
81124;SDS011;72192;52.114;5.424;2024-01-07T12:47:47;4.28;;;1.70;;
81124;SDS011;72192;52.114;5.424;2024-01-07T12:50:28;3.63;;;1.48;;
81124;SDS011;72192;52.114;5.424;2024-01-07T12:53:09;4.13;;;1.55;;
81124;SDS011;72192;52.114;5.424;2024-01-07T12:55:52;4.22;;;1.60;;
81124;SDS011;72192;52.114;5.424;2024-01-07T12:58:33;3.65;;;1.77;;
81124;SDS011;72192;52.114;5.424;2024-01-07T13:01:13;5.05;;;1.40;;
81124;SDS011;72192;52.114;5.424;2024-01-07T13:03:53;3.33;;;1.30;;
81124;SDS011;72192;52.114;5.424;2024-01-07T13:06:32;4.25;;;1.98;;
81124;SDS011;72192;52.114;5.424;2024-01-07T13:09:13;3.63;;;1.45;;
81124;SDS011;72192;52.114;5.424;2024-01-07T13:11:52;3.95;;;1.27;;
81124;SDS011;72192;52.114;5.424;2024-01-07T13:14:35;3.70;;;1.50;;
81124;SDS011;72192;52.114;5.424;2024-01-07T13:17:15;3.10;;;1.20;;
81124;SDS011;72192;52.114;5.424;2024-01-07T13:19:58;4.10;;;1.40;;
81124;SDS011;72192;52.114;5.424;2024-01-07T13:22:41;3.15;;;1.52;;
81124;SDS011;72192;52.114;5.424;2024-01-07T13:25:21;3.17;;;1.20;;
81124;SDS011;72192;52.114;5.424;2024-01-07T13:28:01;2.85;;;1.25;;
81124;SDS011;72192;52.114;5.424;2024-01-07T13:30:41;2.60;;;1.17;;
81124;SDS011;72192;52.114;5.424;2024-01-07T13:33:21;3.10;;;1.27;;
81124;SDS011;72192;52.114;5.424;2024-01-07T13:36:01;2.85;;;1.20;;
81124;SDS011;72192;52.114;5.424;2024-01-07T13:38:46;3.42;;;1.27;;
81124;SDS011;72192;52.114;5.424;2024-01-07T13:41:28;3.75;;;1.50;;
81124;SDS011;72192;52.114;5.424;2024-01-07T13:44:09;2.53;;;1.20;;
81124;SDS011;72192;52.114;5.424;2024-01-07T13:46:55;2.75;;;1.20;;
81124;SDS011;72192;52.114;5.424;2024-01-07T13:49:36;2.60;;;1.30;;
81124;SDS011;72192;52.114;5.424;2024-01-07T13:52:16;2.80;;;1.20;;
81124;SDS011;72192;52.114;5.424;2024-01-07T13:54:57;3.17;;;1.10;;
81124;SDS011;72192;52.114;5.424;2024-01-07T13:57:37;2.50;;;1.20;;
81124;SDS011;72192;52.114;5.424;2024-01-07T14:00:19;3.22;;;1.30;;
81124;SDS011;72192;52.114;5.424;2024-01-07T14:03:00;3.15;;;1.00;;
81124;SDS011;72192;52.114;5.424;2024-01-07T14:05:43;3.40;;;1.10;;
81124;SDS011;72192;52.114;5.424;2024-01-07T14:08:23;3.58;;;1.23;;
81124;SDS011;72192;52.114;5.424;2024-01-07T14:11:03;4.05;;;1.50;;
81124;SDS011;72192;52.114;5.424;2024-01-07T14:13:46;4.10;;;1.30;;
81124;SDS011;72192;52.114;5.424;2024-01-07T14:16:25;2.67;;;1.30;;
81124;SDS011;72192;52.114;5.424;2024-01-07T14:19:06;4.07;;;1.30;;
81124;SDS011;72192;52.114;5.424;2024-01-07T14:21:45;2.17;;;1.00;;
81124;SDS011;72192;52.114;5.424;2024-01-07T14:24:25;3.60;;;0.95;;
81124;SDS011;72192;52.114;5.424;2024-01-07T14:27:06;3.38;;;1.30;;
81124;SDS011;72192;52.114;5.424;2024-01-07T14:29:45;3.55;;;1.20;;
81124;SDS011;72192;52.114;5.424;2024-01-07T14:32:26;2.85;;;1.45;;
81124;SDS011;72192;52.114;5.424;2024-01-07T14:35:05;3.47;;;1.10;;
81124;SDS011;72192;52.114;5.424;2024-01-07T14:37:50;3.92;;;1.20;;
81124;SDS011;72192;52.114;5.424;2024-01-07T14:40:32;3.05;;;1.15;;
81124;SDS011;72192;52.114;5.424;2024-01-07T14:43:13;4.63;;;1.40;;
81124;SDS011;72192;52.114;5.424;2024-01-07T14:45:54;3.85;;;1.30;;
81124;SDS011;72192;52.114;5.424;2024-01-07T14:48:34;2.72;;;1.20;;
81124;SDS011;72192;52.114;5.424;2024-01-07T14:51:14;3.20;;;1.17;;
81124;SDS011;72192;52.114;5.424;2024-01-07T14:53:53;3.65;;;1.42;;
81124;SDS011;72192;52.114;5.424;2024-01-07T14:56:33;3.03;;;1.40;;
81124;SDS011;72192;52.114;5.424;2024-01-07T14:59:14;1.75;;;1.00;;
81124;SDS011;72192;52.114;5.424;2024-01-07T15:01:54;3.10;;;1.30;;
81124;SDS011;72192;52.114;5.424;2024-01-07T15:04:35;2.92;;;1.30;;
81124;SDS011;72192;52.114;5.424;2024-01-07T15:07:15;4.22;;;1.30;;
81124;SDS011;72192;52.114;5.424;2024-01-07T15:09:55;5.20;;;1.63;;
81124;SDS011;72192;52.114;5.424;2024-01-07T15:12:36;3.08;;;1.45;;
81124;SDS011;72192;52.114;5.424;2024-01-07T15:15:23;3.38;;;1.45;;
81124;SDS011;72192;52.114;5.424;2024-01-07T15:18:08;7.03;;;1.38;;
81124;SDS011;72192;52.114;5.424;2024-01-07T15:20:49;3.90;;;1.52;;
81124;SDS011;72192;52.114;5.424;2024-01-07T15:23:29;5.60;;;1.40;;
81124;SDS011;72192;52.114;5.424;2024-01-07T15:26:09;3.00;;;1.02;;
81124;SDS011;72192;52.114;5.424;2024-01-07T15:28:51;3.55;;;1.35;;
81124;SDS011;72192;52.114;5.424;2024-01-07T15:31:33;5.85;;;1.40;;
81124;SDS011;72192;52.114;5.424;2024-01-07T15:34:12;4.90;;;1.30;;
81124;SDS011;72192;52.114;5.424;2024-01-07T15:36:53;3.90;;;1.42;;
81124;SDS011;72192;52.114;5.424;2024-01-07T15:39:32;4.40;;;1.55;;
81124;SDS011;72192;52.114;5.424;2024-01-07T15:42:13;4.72;;;1.30;;
81124;SDS011;72192;52.114;5.424;2024-01-07T15:44:53;3.80;;;1.63;;
81124;SDS011;72192;52.114;5.424;2024-01-07T15:47:32;3.60;;;1.35;;
81124;SDS011;72192;52.114;5.424;2024-01-07T15:50:13;3.90;;;1.52;;
81124;SDS011;72192;52.114;5.424;2024-01-07T15:52:56;4.20;;;1.45;;
81124;SDS011;72192;52.114;5.424;2024-01-07T15:55:37;4.15;;;1.38;;
81124;SDS011;72192;52.114;5.424;2024-01-07T15:58:17;4.40;;;1.48;;
81124;SDS011;72192;52.114;5.424;2024-01-07T16:00:57;3.78;;;1.60;;
81124;SDS011;72192;52.114;5.424;2024-01-07T16:03:40;3.70;;;1.40;;
81124;SDS011;72192;52.114;5.424;2024-01-07T16:06:22;3.88;;;1.13;;
81124;SDS011;72192;52.114;5.424;2024-01-07T16:09:03;4.35;;;1.40;;
81124;SDS011;72192;52.114;5.424;2024-01-07T16:11:46;3.13;;;1.23;;
81124;SDS011;72192;52.114;5.424;2024-01-07T16:14:26;4.32;;;1.60;;
81124;SDS011;72192;52.114;5.424;2024-01-07T16:17:11;4.30;;;1.40;;
81124;SDS011;72192;52.114;5.424;2024-01-07T16:19:51;4.13;;;1.70;;
81124;SDS011;72192;52.114;5.424;2024-01-07T16:22:31;3.30;;;1.38;;
81124;SDS011;72192;52.114;5.424;2024-01-07T16:25:11;3.83;;;1.75;;
81124;SDS011;72192;52.114;5.424;2024-01-07T16:27:51;3.70;;;1.70;;
81124;SDS011;72192;52.114;5.424;2024-01-07T16:30:31;5.50;;;1.95;;